createdAt,value
2022-12-03T00:01:20.900Z,99671.75
2022-12-03T00:03:49.415Z,99667.44
2022-12-03T00:06:19.276Z,99671.66
2022-12-03T00:08:47.654Z,99678.56
2022-12-03T00:11:16.096Z,99672.38
2022-12-03T00:13:45.373Z,99667.84
2022-12-03T00:16:13.920Z,99673.28
2022-12-03T00:18:42.600Z,99663.00
2022-12-03T00:21:10.981Z,99668.09
2022-12-03T00:23:42.508Z,99648.03
2022-12-03T00:26:11.108Z,99658.50
2022-12-03T00:28:39.461Z,99662.78
2022-12-03T00:31:07.939Z,99658.34
2022-12-03T00:33:36.351Z,99650.63
2022-12-03T00:36:05.170Z,99652.44
2022-12-03T00:38:33.701Z,99658.25
2022-12-03T00:41:03.991Z,99661.88
2022-12-03T00:43:32.384Z,99651.44
2022-12-03T00:46:01.041Z,99653.09
2022-12-03T00:48:29.442Z,99655.63
2022-12-03T00:50:57.817Z,99652.09
2022-12-03T00:53:26.176Z,99658.19
2022-12-03T00:55:54.531Z,99650.53
2022-12-03T00:58:24.304Z,99657.56
2022-12-03T01:00:52.656Z,99653.25
2022-12-03T01:03:21.086Z,99658.44
2022-12-03T01:05:49.483Z,99650.47
2022-12-03T01:08:18.055Z,99660.97
2022-12-03T01:10:46.414Z,99655.88
2022-12-03T01:13:14.733Z,99658.41
2022-12-03T01:15:44.534Z,99653.13
2022-12-03T01:18:12.885Z,99658.50
2022-12-03T01:20:41.238Z,99644.50
2022-12-03T01:23:09.571Z,99652.50
2022-12-03T01:25:37.955Z,99652.56
2022-12-03T01:28:06.304Z,99661.09
2022-12-03T01:30:55.181Z,99646.09
2022-12-03T01:33:23.956Z,99655.75
2022-12-03T01:35:52.407Z,99659.13
2022-12-03T01:38:21.062Z,99660.13
2022-12-03T01:40:49.868Z,99660.22
2022-12-03T01:43:18.267Z,99653.28
2022-12-03T01:45:46.737Z,99659.19
2022-12-03T01:48:17.094Z,99655.63
2022-12-03T01:50:47.179Z,99662.56
2022-12-03T01:53:18.898Z,99659.97
2022-12-03T01:55:49.084Z,99644.31
2022-12-03T01:58:21.051Z,99664.44
2022-12-03T02:00:49.534Z,99648.72
2022-12-03T02:03:22.298Z,99656.66
2022-12-03T02:05:52.352Z,99647.25
2022-12-03T02:08:31.428Z,99649.56
2022-12-03T02:11:03.424Z,99656.63
2022-12-03T02:13:32.129Z,99655.63
2022-12-03T02:16:00.646Z,99628.56
2022-12-03T02:18:29.062Z,99652.31
2022-12-03T02:21:05.732Z,99654.03
2022-12-03T02:23:39.841Z,99653.13
2022-12-03T02:26:09.904Z,99647.13
2022-12-03T02:28:39.055Z,99635.91
2022-12-03T02:31:08.073Z,99643.72
2022-12-03T02:33:37.402Z,99636.75
2022-12-03T02:36:06.641Z,99629.88
2022-12-03T02:38:36.612Z,99631.34
2022-12-03T02:41:08.678Z,99639.84
2022-12-03T02:43:38.186Z,99619.88
2022-12-03T02:46:09.283Z,99634.63
2022-12-03T02:48:39.628Z,99632.84
2022-12-03T02:51:10.196Z,99628.41
2022-12-03T02:53:44.517Z,99628.63
2022-12-03T02:56:16.768Z,99627.09
2022-12-03T02:58:49.457Z,99619.34
2022-12-03T03:01:18.851Z,99622.78
2022-12-03T03:03:48.689Z,99618.47
2022-12-03T03:06:19.384Z,99621.91
2022-12-03T03:08:47.822Z,99628.94
2022-12-03T03:11:16.229Z,99626.09
2022-12-03T03:13:46.151Z,99620.97
2022-12-03T03:16:14.676Z,99625.13
2022-12-03T03:18:43.395Z,99622.53
2022-12-03T03:21:13.032Z,99620.88
2022-12-03T03:23:41.372Z,99616.63
2022-12-03T03:26:12.379Z,99623.47
2022-12-03T03:28:44.025Z,99620.13
2022-12-03T03:31:16.992Z,99624.34
2022-12-03T03:33:48.926Z,99622.53
2022-12-03T03:36:18.090Z,99616.41
2022-12-03T03:38:47.329Z,99621.50
2022-12-03T03:41:17.384Z,99617.31
2022-12-03T03:43:46.944Z,99623.47
2022-12-03T03:46:17.907Z,99620.91
2022-12-03T03:48:48.262Z,99615.66
2022-12-03T03:51:17.454Z,99620.94
2022-12-03T03:53:49.150Z,99624.31
2022-12-03T03:56:20.091Z,99612.25
2022-12-03T03:58:48.541Z,99609.59
2022-12-03T04:01:19.583Z,99603.47
2022-12-03T04:03:48.077Z,99610.53
2022-12-03T04:06:16.821Z,99605.38
2022-12-03T04:08:45.874Z,99602.75
2022-12-03T04:11:31.566Z,99606.13
2022-12-03T04:13:59.929Z,99599.34
2022-12-03T04:16:29.936Z,99597.50
2022-12-03T04:18:58.432Z,99600.16
2022-12-03T04:21:44.392Z,99598.50
2022-12-03T04:24:13.221Z,99602.72
2022-12-03T04:26:59.069Z,99593.88
2022-12-03T04:29:27.441Z,99599.97
2022-12-03T04:32:14.860Z,99596.53
2022-12-03T04:35:00.683Z,99580.81
2022-12-03T04:37:29.122Z,99586.38
2022-12-03T04:39:57.589Z,99600.16
2022-12-03T04:42:26.242Z,99587.09
2022-12-03T04:44:54.873Z,99592.38
2022-12-03T04:47:24.799Z,99601.88
2022-12-03T04:49:53.311Z,99588.13
2022-12-03T04:52:22.352Z,99585.59
2022-12-03T04:54:50.673Z,99582.09
2022-12-03T04:57:19.002Z,99592.53
2022-12-03T04:59:47.393Z,99594.97
2022-12-03T05:02:15.803Z,99588.84
2022-12-03T05:04:45.631Z,99586.19
2022-12-03T05:07:14.062Z,99581.91
2022-12-03T05:09:42.488Z,99578.47
2022-12-03T05:12:11.390Z,99592.13
2022-12-03T05:14:39.714Z,99582.66
2022-12-03T05:17:08.125Z,99580.88
2022-12-03T05:19:53.359Z,99584.34
2022-12-03T05:22:23.036Z,99579.22
2022-12-03T05:24:51.729Z,99588.69
2022-12-03T05:27:23.936Z,99581.97
2022-12-03T05:29:53.369Z,99577.69
2022-12-03T05:32:21.784Z,99576.13
2022-12-03T05:34:50.269Z,99578.69
2022-12-03T05:37:18.693Z,99576.84
2022-12-03T05:39:48.357Z,99574.13
2022-12-03T05:42:34.230Z,99581.09
2022-12-03T05:45:03.103Z,99577.63
2022-12-03T05:47:31.630Z,99569.84
2022-12-03T05:50:00.131Z,99574.97
2022-12-03T05:52:28.531Z,99568.97
2022-12-03T05:54:58.267Z,99576.75
2022-12-03T05:57:26.613Z,99563.88
2022-12-03T05:59:55.009Z,99569.88
2022-12-03T06:02:23.567Z,99572.53
2022-12-03T06:04:52.603Z,99563.19
2022-12-03T06:07:21.188Z,99565.91
2022-12-03T06:09:49.585Z,99562.34
2022-12-03T06:12:19.265Z,99573.72
2022-12-03T06:14:48.203Z,99558.03
2022-12-03T06:17:16.607Z,99565.81
2022-12-03T06:19:44.957Z,99568.56
2022-12-03T06:22:13.440Z,99574.38
2022-12-03T06:24:42.049Z,99570.09
2022-12-03T06:27:10.469Z,99568.22
2022-12-03T06:29:40.231Z,99562.13
2022-12-03T06:32:08.771Z,99570.09
2022-12-03T06:34:37.213Z,99572.75
2022-12-03T06:37:05.744Z,99585.00
2022-12-03T06:39:34.378Z,99575.50
2022-12-03T06:42:03.329Z,99566.78
2022-12-03T06:44:31.712Z,99576.31
2022-12-03T06:47:01.469Z,99579.00
2022-12-03T06:49:29.998Z,99579.66
2022-12-03T06:51:58.600Z,99577.78
2022-12-03T06:54:27.033Z,99577.06
2022-12-03T06:56:55.411Z,99574.44
2022-12-03T06:59:23.823Z,99568.28
2022-12-03T07:01:52.307Z,99560.59
2022-12-03T07:04:22.091Z,99556.22
2022-12-03T07:06:50.461Z,99556.13
2022-12-03T07:09:18.824Z,99558.66
2022-12-03T07:11:47.257Z,99557.03
2022-12-03T07:14:15.824Z,99560.44
2022-12-03T07:16:44.475Z,99560.56
2022-12-03T07:19:13.321Z,99552.69
2022-12-03T07:21:43.149Z,99558.66
2022-12-03T07:24:12.190Z,99555.19
2022-12-03T07:26:40.731Z,99557.78
2022-12-03T07:29:09.218Z,99559.50
2022-12-03T07:31:37.611Z,99564.00
2022-12-03T07:34:06.034Z,99559.59
2022-12-03T07:36:36.003Z,99554.50
2022-12-03T07:39:06.593Z,99554.81
2022-12-03T07:41:35.205Z,99561.84
2022-12-03T07:44:07.842Z,99566.97
2022-12-03T07:46:41.173Z,99566.03
2022-12-03T07:49:09.773Z,99559.00
2022-12-03T07:51:38.427Z,99564.22
2022-12-03T07:54:08.644Z,99562.56
2022-12-03T07:56:37.660Z,99560.84
2022-12-03T07:59:06.547Z,99553.91
2022-12-03T08:01:35.272Z,99570.38
2022-12-03T08:04:03.794Z,99569.53
2022-12-03T08:06:32.689Z,99567.81
2022-12-03T08:09:01.221Z,99564.28
2022-12-03T08:11:31.286Z,99560.78
2022-12-03T08:13:59.913Z,99562.53
2022-12-03T08:16:31.683Z,99575.47
2022-12-03T08:19:00.161Z,99580.53
2022-12-03T08:21:33.923Z,99584.88
2022-12-03T08:24:13.949Z,99568.41
2022-12-03T08:26:44.953Z,99574.66
2022-12-03T08:29:15.280Z,99567.81
2022-12-03T08:31:48.376Z,99562.34
2022-12-03T08:34:19.784Z,99570.16
2022-12-03T08:36:48.995Z,99573.63
2022-12-03T08:39:34.291Z,99569.09
2022-12-03T08:42:30.914Z,99574.31
2022-12-03T08:45:10.926Z,99572.72
2022-12-03T08:47:40.282Z,99572.84
2022-12-03T08:50:27.367Z,99578.09
2022-12-03T08:53:00.681Z,99576.38
2022-12-03T08:55:36.814Z,99577.19
2022-12-03T08:58:19.798Z,99577.16
2022-12-03T09:00:49.566Z,99578.91
2022-12-03T09:03:20.227Z,99576.47
2022-12-03T09:05:48.659Z,99577.44
2022-12-03T09:08:17.122Z,99578.34
2022-12-03T09:10:45.920Z,99581.03
2022-12-03T09:13:15.656Z,99587.94
2022-12-03T09:15:44.134Z,99580.19
2022-12-03T09:18:14.291Z,99578.34
2022-12-03T09:20:42.845Z,99573.91
2022-12-03T09:23:11.267Z,99581.91
2022-12-03T09:25:39.756Z,99562.09
2022-12-03T09:28:08.256Z,99583.75
2022-12-03T09:30:38.742Z,99571.66
2022-12-03T09:33:07.332Z,99568.25
2022-12-03T09:35:35.861Z,99575.28
2022-12-03T09:38:04.578Z,99570.88
2022-12-03T09:40:33.026Z,99574.44
2022-12-03T09:43:01.702Z,99569.09
2022-12-03T09:45:31.030Z,99567.44
2022-12-03T09:48:02.900Z,99561.28
2022-12-03T09:50:32.196Z,99559.56
2022-12-03T09:53:04.060Z,99562.38
2022-12-03T09:55:33.191Z,99562.31
2022-12-03T09:58:01.606Z,99570.13
2022-12-03T10:00:31.225Z,99565.03
2022-12-03T10:03:05.551Z,99552.81
2022-12-03T10:05:35.179Z,99563.22
2022-12-03T10:08:08.980Z,99560.44
2022-12-03T10:10:40.009Z,99543.88
2022-12-03T10:13:13.646Z,99556.19
2022-12-03T10:15:42.175Z,99563.03
2022-12-03T10:18:19.106Z,99542.94
2022-12-03T10:20:48.125Z,99547.38
2022-12-03T10:23:24.667Z,99547.56
2022-12-03T10:25:55.533Z,99548.41
2022-12-03T10:28:30.372Z,99529.31
2022-12-03T10:31:00.013Z,99535.59
2022-12-03T10:33:33.488Z,99536.50
2022-12-03T10:36:24.348Z,99527.81
2022-12-03T10:39:16.413Z,99529.56
2022-12-03T10:41:45.807Z,99526.75
2022-12-03T10:44:18.148Z,99517.25
2022-12-03T10:47:05.228Z,99515.50
2022-12-03T10:49:35.205Z,99508.50
2022-12-03T10:52:04.213Z,99517.16
2022-12-03T10:54:35.554Z,99505.00
2022-12-03T10:57:04.724Z,99502.53
2022-12-03T10:59:35.146Z,99506.91
2022-12-03T11:02:04.900Z,99497.94
2022-12-03T11:04:37.438Z,99492.13
2022-12-03T11:07:15.488Z,99486.75
2022-12-03T11:09:45.537Z,99491.22
2022-12-03T11:12:19.900Z,99483.31
2022-12-03T11:15:08.641Z,99465.22
2022-12-03T11:17:49.509Z,99477.41
2022-12-03T11:21:10.237Z,99476.66
2022-12-03T11:24:18.350Z,99473.94
2022-12-03T11:27:23.372Z,99461.09
2022-12-03T11:30:01.593Z,99464.75
2022-12-03T11:33:03.458Z,99457.69
2022-12-03T11:35:59.320Z,99464.63
2022-12-03T11:38:58.243Z,99467.78
2022-12-03T11:41:31.675Z,99460.13
2022-12-03T11:44:33.609Z,99452.31
2022-12-03T11:47:13.551Z,99448.03
2022-12-03T11:50:03.470Z,99448.88
2022-12-03T11:52:43.208Z,99448.88
2022-12-03T11:55:35.019Z,99451.47
2022-12-03T11:58:07.109Z,99439.28
2022-12-03T12:00:35.485Z,99441.88
2022-12-03T12:03:06.675Z,99438.50
2022-12-03T12:05:40.342Z,99422.16
2022-12-03T12:08:19.907Z,99419.63
2022-12-03T12:10:50.206Z,99422.03
2022-12-03T12:13:52.106Z,99410.06
2022-12-03T12:16:58.330Z,99418.66
2022-12-03T12:19:35.380Z,99422.84
2022-12-03T12:22:30.350Z,99421.19
2022-12-03T12:25:04.382Z,99421.06
2022-12-03T12:27:36.224Z,99410.59
2022-12-03T12:30:25.891Z,99405.56
2022-12-03T12:33:08.128Z,99409.81
2022-12-03T12:35:36.926Z,99407.19
2022-12-03T12:38:22.538Z,99403.72
2022-12-03T12:40:51.541Z,99398.53
2022-12-03T12:43:24.518Z,99389.84
2022-12-03T12:48:55.208Z,99383.69
2022-12-03T12:51:26.968Z,99388.03
2022-12-03T12:54:03.848Z,99391.47
2022-12-03T12:56:41.107Z,99383.81
2022-12-03T12:59:16.040Z,99383.03
2022-12-03T13:02:04.498Z,99384.63
2022-12-03T13:04:40.247Z,99390.72
2022-12-03T13:07:10.265Z,99381.09
2022-12-03T13:09:57.025Z,99379.38
2022-12-03T13:12:26.825Z,99362.91
2022-12-03T13:15:00.834Z,99375.03
2022-12-03T13:17:47.206Z,99373.34
2022-12-03T13:20:20.874Z,99355.94
2022-12-03T13:22:49.281Z,99348.06
2022-12-03T13:26:00.194Z,99366.34
2022-12-03T13:28:28.385Z,99356.69
2022-12-03T13:31:14.866Z,99355.81
2022-12-03T13:33:43.772Z,99363.66
2022-12-03T13:36:16.201Z,99354.94
2022-12-03T13:39:08.984Z,99365.31
2022-12-03T13:41:55.000Z,99355.88
2022-12-03T13:44:23.602Z,99364.63
2022-12-03T13:47:19.878Z,99359.31
2022-12-03T13:49:52.106Z,99364.56
2022-12-03T13:52:41.353Z,99352.31
2022-12-03T13:55:12.667Z,99351.44
2022-12-03T13:57:41.110Z,99352.34
2022-12-03T14:00:11.083Z,99343.00
2022-12-03T14:02:49.091Z,99343.84
2022-12-03T14:05:17.844Z,99342.09
2022-12-03T14:07:48.161Z,99339.53
2022-12-03T14:10:17.299Z,99339.44
2022-12-03T14:12:57.840Z,99346.41
2022-12-03T14:15:26.782Z,99339.44
2022-12-03T14:17:55.418Z,99331.59
2022-12-03T14:20:26.330Z,99311.59
2022-12-03T14:23:03.725Z,99336.00
2022-12-03T14:25:32.201Z,99316.75
2022-12-03T14:28:01.363Z,99334.97
2022-12-03T14:30:31.528Z,99340.19
2022-12-03T14:33:14.798Z,99336.78
2022-12-03T14:35:43.188Z,99332.38
2022-12-03T14:38:12.997Z,99348.88
2022-12-03T14:40:41.445Z,99349.72
2022-12-03T14:43:22.851Z,99351.44
2022-12-03T14:45:51.388Z,99360.09
2022-12-03T14:48:22.494Z,99346.19
2022-12-03T14:50:51.340Z,99328.84
2022-12-03T14:53:30.300Z,99354.03
2022-12-03T14:55:59.287Z,99351.41
2022-12-03T14:58:27.903Z,99355.72
2022-12-03T15:00:56.698Z,99362.59
2022-12-03T15:03:50.020Z,99342.66
2022-12-03T15:06:18.589Z,99347.00
2022-12-03T15:08:49.318Z,99348.75
2022-12-03T15:11:33.302Z,99340.13
2022-12-03T15:14:03.768Z,99335.78
2022-12-03T15:16:37.209Z,99329.66
2022-12-03T15:19:40.523Z,99313.91
2022-12-03T15:22:11.642Z,99313.91
2022-12-03T15:25:07.069Z,99312.19
2022-12-03T15:27:41.429Z,99341.75
2022-12-03T15:30:10.923Z,99341.75
2022-12-03T15:33:02.516Z,99347.88
2022-12-03T15:35:31.100Z,99343.50
2022-12-03T15:37:59.745Z,99340.91
2022-12-03T15:40:31.088Z,99345.22
2022-12-03T15:42:59.760Z,99350.41
2022-12-03T15:45:28.266Z,99333.88
2022-12-03T15:47:56.851Z,99340.00
2022-12-03T15:50:25.582Z,99310.47
2022-12-03T15:52:56.649Z,99333.16
2022-12-03T15:55:25.502Z,99321.94
2022-12-03T15:57:55.425Z,99333.28
2022-12-03T16:00:23.902Z,99328.91
2022-12-03T16:02:53.036Z,99330.56
2022-12-03T16:05:23.913Z,99330.50
2022-12-03T16:07:54.955Z,99308.72
2022-12-03T16:10:23.680Z,99319.22
2022-12-03T16:12:55.829Z,99335.81
2022-12-03T16:15:27.245Z,99321.13
2022-12-03T16:17:56.058Z,99326.31
2022-12-03T16:20:24.726Z,99322.00
2022-12-03T16:22:53.369Z,99326.31
2022-12-03T16:25:21.906Z,99317.66
2022-12-03T16:27:50.469Z,99315.09
2022-12-03T16:30:20.676Z,99330.72
2022-12-03T16:32:51.631Z,99321.16
2022-12-03T16:35:20.324Z,99315.88
2022-12-03T16:37:49.041Z,99326.41
2022-12-03T16:40:17.833Z,99325.47
2022-12-03T16:42:46.405Z,99321.94
2022-12-03T16:45:33.883Z,99320.22
2022-12-03T16:48:07.073Z,99315.72
2022-12-03T16:50:37.593Z,99320.03
2022-12-03T16:53:06.408Z,99322.59
2022-12-03T16:55:34.829Z,99325.19
2022-12-03T16:58:03.257Z,99293.91
2022-12-03T17:00:31.743Z,99317.44
2022-12-03T17:03:00.318Z,99321.84
2022-12-03T17:05:30.268Z,99297.53
2022-12-03T17:07:58.714Z,99314.88
2022-12-03T17:10:27.210Z,99313.19
2022-12-03T17:13:11.213Z,99307.09
2022-12-03T17:15:39.918Z,99320.16
2022-12-03T17:18:09.352Z,99316.63
2022-12-03T17:20:39.131Z,99315.69
2022-12-03T17:23:08.048Z,99312.19
2022-12-03T17:25:36.557Z,99313.91
2022-12-03T17:28:05.101Z,99311.28
2022-12-03T17:30:33.555Z,99315.63
2022-12-03T17:33:03.358Z,99313.13
2022-12-03T17:35:33.781Z,99309.63
2022-12-03T17:38:03.854Z,99320.03
2022-12-03T17:40:32.664Z,99315.72
2022-12-03T17:43:01.228Z,99308.78
2022-12-03T17:45:29.638Z,99301.84
2022-12-03T17:47:58.171Z,99305.22
2022-12-03T17:50:26.684Z,99307.00
2022-12-03T17:52:55.794Z,99305.28
2022-12-03T17:55:34.687Z,99295.66
2022-12-03T17:58:06.119Z,99293.91
2022-12-03T18:00:35.335Z,99303.50
2022-12-03T18:03:04.161Z,99293.03
2022-12-03T18:05:32.787Z,99285.25
2022-12-03T18:08:01.344Z,99292.22
2022-12-03T18:10:31.312Z,99279.19
2022-12-03T18:13:02.215Z,99287.00
2022-12-03T18:15:31.249Z,99283.56
2022-12-03T18:17:59.652Z,99283.56
2022-12-03T18:20:28.169Z,99277.53
2022-12-03T18:22:56.805Z,99274.09
2022-12-03T18:25:25.206Z,99283.59
2022-12-03T18:27:55.284Z,99281.81
2022-12-03T18:30:24.384Z,99276.56
2022-12-03T18:32:52.877Z,99283.59
2022-12-03T18:35:21.718Z,99281.81
2022-12-03T18:37:51.946Z,99269.63
2022-12-03T18:40:24.527Z,99275.72
2022-12-03T18:42:56.664Z,99277.44
2022-12-03T18:45:25.184Z,99281.75
2022-12-03T18:47:54.643Z,99273.13
2022-12-03T18:50:23.101Z,99268.81
2022-12-03T18:52:51.634Z,99267.16
2022-12-03T18:55:21.556Z,99260.16
2022-12-03T18:57:50.524Z,99275.75
2022-12-03T19:00:21.509Z,99258.44
2022-12-03T19:03:05.801Z,99257.53
2022-12-03T19:05:36.470Z,99251.50
2022-12-03T19:08:12.500Z,99254.97
2022-12-03T19:10:42.296Z,99263.69
2022-12-03T19:13:10.820Z,99260.19
2022-12-03T19:18:59.412Z,99256.75
2022-12-03T19:21:33.534Z,99261.09
2022-12-03T19:26:54.452Z,99254.16
2022-12-03T19:29:23.374Z,99252.44
2022-12-03T19:31:53.421Z,99254.16
2022-12-03T19:34:21.906Z,99258.47
2022-12-03T19:36:50.229Z,99252.41
2022-12-03T19:39:18.840Z,99246.34
2022-12-03T19:41:47.832Z,99253.31
2022-12-03T19:44:18.515Z,99248.94
2022-12-03T19:46:46.925Z,99255.03
2022-12-03T19:49:18.503Z,99257.69
2022-12-03T19:51:46.920Z,99259.31
2022-12-03T19:54:15.350Z,99253.31
2022-12-03T19:56:44.590Z,99247.25
2022-12-03T19:59:14.018Z,99245.50
2022-12-03T20:01:43.314Z,99244.69
2022-12-03T20:04:13.290Z,99246.41
2022-12-03T20:06:45.314Z,99246.41
2022-12-03T20:09:17.665Z,99249.81
2022-12-03T20:11:46.513Z,99244.63
2022-12-03T20:14:16.992Z,99248.91
2022-12-03T20:16:45.835Z,99249.75
2022-12-03T20:19:16.624Z,99254.13
2022-12-03T20:21:46.509Z,99244.63
2022-12-03T20:24:17.431Z,99256.75
2022-12-03T20:26:45.964Z,99255.06
2022-12-03T20:29:14.841Z,99262.91
2022-12-03T20:31:43.311Z,99260.22
2022-12-03T20:34:12.405Z,99255.84
2022-12-03T20:36:40.788Z,99252.44
2022-12-03T20:39:11.385Z,99241.09
2022-12-03T20:41:39.848Z,99246.41
2022-12-03T20:44:08.325Z,99248.09
2022-12-03T20:46:37.260Z,99244.56
2022-12-03T20:49:05.686Z,99245.47
2022-12-03T20:51:34.148Z,99242.88
2022-12-03T20:54:03.330Z,99236.78
2022-12-03T20:56:34.747Z,99239.47
2022-12-03T20:59:04.720Z,99248.16
2022-12-03T21:01:34.301Z,99241.13
2022-12-03T21:04:04.608Z,99242.84
2022-12-03T21:06:34.308Z,99241.09
2022-12-03T21:09:04.232Z,99236.00
2022-12-03T21:11:35.832Z,99225.50
2022-12-03T21:14:05.091Z,99232.50
2022-12-03T21:17:06.661Z,99224.69
2022-12-03T21:19:26.368Z,99227.22
2022-12-03T21:21:55.945Z,99228.13
2022-12-03T21:24:24.437Z,99225.56
2022-12-03T21:26:54.375Z,99230.66
2022-12-03T21:29:23.043Z,99233.31
2022-12-03T21:31:51.619Z,99231.56
2022-12-03T21:34:20.410Z,99227.25
2022-12-03T21:36:48.894Z,99229.84
2022-12-03T21:39:18.669Z,99231.63
2022-12-03T21:42:34.919Z,99235.03
2022-12-03T21:44:37.144Z,99236.75
2022-12-03T21:47:12.464Z,99227.22
2022-12-03T21:49:42.536Z,99231.59
2022-12-03T21:52:11.260Z,99229.84
2022-12-03T21:54:39.754Z,99239.38
2022-12-03T21:57:08.266Z,99238.47
2022-12-03T21:59:38.139Z,99233.31
2022-12-03T22:02:07.547Z,99226.41
2022-12-03T22:04:36.126Z,99222.88
2022-12-03T22:07:05.551Z,99225.50
2022-12-03T22:09:34.121Z,99225.53
2022-12-03T22:12:02.622Z,99225.50
2022-12-03T22:14:31.421Z,99216.78
2022-12-03T22:17:01.141Z,99218.53
2022-12-03T22:19:29.840Z,99222.81
2022-12-03T22:21:58.417Z,99220.19
2022-12-03T22:24:27.031Z,99218.50
2022-12-03T22:26:55.748Z,99212.41
2022-12-03T22:29:24.193Z,99208.91
2022-12-03T22:31:52.807Z,99204.59
2022-12-03T22:34:22.873Z,99211.50
2022-12-03T22:36:51.450Z,99214.13
2022-12-03T22:39:19.896Z,99201.09
2022-12-03T22:41:48.484Z,99193.41
2022-12-03T22:44:17.019Z,99187.34
2022-12-03T22:46:45.558Z,99195.13
2022-12-03T22:49:14.564Z,99197.69
2022-12-03T22:51:46.264Z,99185.53
2022-12-03T22:54:18.281Z,99177.69
2022-12-03T22:56:50.955Z,99177.75
2022-12-03T22:59:19.368Z,99172.53
2022-12-03T23:01:47.886Z,99186.41
2022-12-03T23:04:16.723Z,99181.22
2022-12-03T23:06:46.787Z,99181.22
2022-12-03T23:09:15.494Z,99171.63
2022-12-03T23:11:44.603Z,99176.88
2022-12-03T23:14:13.994Z,99185.59
2022-12-03T23:16:42.715Z,99179.53
2022-12-03T23:19:11.525Z,99180.34
2022-12-03T23:21:39.977Z,99186.44
2022-12-03T23:24:11.108Z,99173.47
2022-12-03T23:26:40.336Z,99172.59
2022-12-03T23:29:08.904Z,99175.16
2022-12-03T23:31:37.445Z,99178.59
2022-12-03T23:34:06.652Z,99178.53
2022-12-03T23:36:35.653Z,99169.03
2022-12-03T23:39:04.827Z,99173.38
2022-12-03T23:41:34.525Z,99172.50
2022-12-03T23:44:03.023Z,99178.53
2022-12-03T23:46:31.593Z,99176.81
2022-12-03T23:49:00.679Z,99177.72
2022-12-03T23:51:29.259Z,99164.75
2022-12-03T23:53:57.913Z,99177.75
2022-12-03T23:56:28.199Z,99171.72
2022-12-03T23:58:58.659Z,99169.03
